Time;durP1;ratioP1;P1;durP2;ratioP2;P2;SDS_P1;SDS_P2;PMS_P1;PMS_P2;Temp;Humidity;BMP_temperature;BMP_pressure;BME280_temperature;BME280_humidity;BME280_pressure;Samples;Min_cycle;Max_cycle;Signal;HPM_P1;HPM_P2
2023/10/21 00:01:07;;;;;;;36.28;19.75;;;10.40;99.90;;;;;;4998300;28;20069;-83
2023/10/21 00:03:33;;;;;;;37.60;18.60;;;10.40;99.90;;;;;;4979559;28;20124;-84
2023/10/21 00:05:59;;;;;;;73.68;19.85;;;10.50;99.90;;;;;;4981790;28;20053;-82
2023/10/21 00:08:28;;;;;;;37.75;18.83;;;10.60;99.90;;;;;;4976638;28;20052;-83
2023/10/21 00:11:04;;;;;;;36.35;17.58;;;10.60;99.90;;;;;;4974238;28;20054;-82
2023/10/21 00:13:30;;;;;;;32.63;17.75;;;10.60;99.90;;;;;;4988775;28;20058;-81
2023/10/21 00:15:56;;;;;;;31.60;17.92;;;10.60;99.90;;;;;;4995493;28;20056;-82
2023/10/21 00:18:22;;;;;;;38.47;18.25;;;10.70;99.90;;;;;;4993426;28;20046;-84
2023/10/21 00:20:48;;;;;;;33.65;18.30;;;10.70;99.90;;;;;;4984555;28;20053;-83
2023/10/21 00:23:13;;;;;;;35.25;17.92;;;10.80;99.90;;;;;;4964507;28;20050;-83
2023/10/21 00:25:39;;;;;;;32.60;16.65;;;10.80;99.90;;;;;;4989406;28;20692;-82
2023/10/21 00:28:05;;;;;;;33.08;17.30;;;11.00;99.90;;;;;;4973964;28;20566;-82
2023/10/21 00:30:31;;;;;;;29.65;16.13;;;10.90;99.90;;;;;;4979081;28;20086;-80
2023/10/21 00:32:56;;;;;;;35.28;15.60;;;10.90;99.90;;;;;;4980246;28;20394;-82
2023/10/21 00:35:23;;;;;;;33.17;15.57;;;10.90;99.90;;;;;;4988792;28;20398;-80
2023/10/21 00:37:48;;;;;;;30.30;15.90;;;11.00;99.90;;;;;;4983871;28;20049;-83
2023/10/21 00:40:14;;;;;;;31.42;15.98;;;11.10;99.90;;;;;;4987808;28;20446;-82
2023/10/21 00:42:40;;;;;;;26.75;15.95;;;11.30;99.90;;;;;;4970201;28;20507;-83
2023/10/21 00:45:06;;;;;;;29.70;16.08;;;11.10;99.90;;;;;;4981968;28;20498;-84
2023/10/21 00:47:32;;;;;;;33.85;16.25;;;11.20;99.90;;;;;;4988607;28;20510;-83
2023/10/21 00:49:58;;;;;;;35.33;15.00;;;11.20;99.90;;;;;;4982839;28;20038;-82
2023/10/21 00:52:24;;;;;;;32.53;14.38;;;11.20;99.90;;;;;;4982818;28;20050;-81
2023/10/21 00:54:51;;;;;;;33.63;14.55;;;11.30;99.90;;;;;;4968212;28;20096;-83
2023/10/21 00:57:17;;;;;;;24.33;14.45;;;11.30;99.90;;;;;;4974928;28;20100;-82
2023/10/21 00:59:44;;;;;;;30.95;14.27;;;11.30;99.90;;;;;;4983074;28;20045;-82
2023/10/21 01:02:12;;;;;;;29.80;13.65;;;11.30;99.90;;;;;;4975892;28;20058;-84
2023/10/21 01:04:39;;;;;;;24.02;12.93;;;11.40;99.90;;;;;;4979159;28;20667;-84
2023/10/21 01:07:05;;;;;;;27.38;13.15;;;11.40;99.90;;;;;;4965692;28;20121;-84
2023/10/21 01:09:31;;;;;;;26.65;13.23;;;11.30;99.90;;;;;;4969244;28;20042;-84
2023/10/21 01:11:57;;;;;;;36.10;13.73;;;11.30;99.90;;;;;;4979429;28;20049;-84
2023/10/21 01:14:22;;;;;;;26.05;12.90;;;11.30;99.90;;;;;;4989377;28;20069;-83
2023/10/21 01:16:49;;;;;;;23.90;12.40;;;11.40;99.90;;;;;;4986816;28;20457;-82
2023/10/21 01:19:15;;;;;;;24.60;12.52;;;11.40;99.90;;;;;;4965889;28;20137;-84
2023/10/21 01:21:41;;;;;;;26.77;13.20;;;11.40;99.90;;;;;;4962600;28;20138;-82
2023/10/21 01:24:07;;;;;;;23.60;12.75;;;11.60;99.90;;;;;;4987747;28;20048;-84
2023/10/21 01:26:33;;;;;;;25.92;12.70;;;11.50;99.90;;;;;;4980705;28;20038;-83
2023/10/21 01:28:59;;;;;;;22.40;12.45;;;11.60;99.90;;;;;;4976575;28;20073;-83
2023/10/21 01:31:24;;;;;;;25.05;13.27;;;11.50;99.90;;;;;;4972595;28;20050;-83
2023/10/21 01:33:53;;;;;;;30.38;11.57;;;11.60;99.90;;;;;;4975230;28;20074;-82
2023/10/21 01:36:18;;;;;;;24.25;12.20;;;11.70;99.90;;;;;;4976841;28;20042;-82
2023/10/21 01:38:44;;;;;;;25.30;11.93;;;11.50;99.90;;;;;;4988892;28;20052;-82
2023/10/21 01:41:10;;;;;;;26.00;12.07;;;11.50;99.90;;;;;;4981130;28;20498;-83
2023/10/21 01:43:36;;;;;;;23.05;11.45;;;11.50;99.90;;;;;;4984496;28;20050;-83
2023/10/21 01:46:05;;;;;;;22.30;11.73;;;11.50;99.90;;;;;;4967151;28;20093;-83
2023/10/21 01:48:30;;;;;;;25.65;12.30;;;11.50;99.90;;;;;;4987278;28;20054;-83
2023/10/21 01:51:04;;;;;;;22.63;11.75;;;11.40;99.90;;;;;;4982504;28;20042;-82
2023/10/21 01:53:34;;;;;;;23.77;12.18;;;11.40;99.90;;;;;;4967236;28;20046;-83
2023/10/21 01:56:03;;;;;;;26.92;12.40;;;11.40;99.90;;;;;;4982948;28;20112;-83
2023/10/21 01:58:30;;;;;;;25.50;12.60;;;11.40;99.90;;;;;;4989242;28;20277;-83
2023/10/21 02:00:56;;;;;;;30.08;13.30;;;11.30;99.90;;;;;;4973110;28;20092;-83
2023/10/21 02:03:21;;;;;;;29.60;12.65;;;11.30;99.90;;;;;;4973519;28;20386;-83
2023/10/21 02:05:47;;;;;;;28.30;13.07;;;11.30;99.90;;;;;;4986946;28;20124;-83
2023/10/21 02:08:13;;;;;;;24.23;12.88;;;11.30;99.90;;;;;;4988903;28;21394;-84
2023/10/21 02:10:40;;;;;;;24.88;14.07;;;11.30;99.90;;;;;;4972921;28;20061;-83
2023/10/21 02:13:06;;;;;;;40.00;14.65;;;11.20;99.90;;;;;;4974329;28;20046;-84
2023/10/21 02:15:36;;;;;;;28.25;13.23;;;11.20;99.90;;;;;;4990221;28;20057;-83
2023/10/21 02:18:01;;;;;;;26.48;13.65;;;11.20;99.90;;;;;;4980645;28;20034;-83
2023/10/21 02:20:27;;;;;;;29.60;13.40;;;11.10;99.90;;;;;;4991704;28;20050;-83
2023/10/21 02:22:53;;;;;;;29.00;14.30;;;11.10;99.90;;;;;;4991585;28;20057;-83
2023/10/21 02:25:19;;;;;;;28.83;14.52;;;11.10;99.90;;;;;;4977694;28;20046;-84
2023/10/21 02:27:45;;;;;;;26.25;15.20;;;11.10;99.90;;;;;;4974995;28;20046;-84
2023/10/21 02:30:14;;;;;;;32.80;15.45;;;11.00;99.90;;;;;;4954512;28;20104;-84
2023/10/21 02:32:48;;;;;;;31.27;14.57;;;11.00;99.90;;;;;;4974997;28;20046;-83
2023/10/21 02:35:15;;;;;;;30.90;15.50;;;11.00;99.90;;;;;;4989383;28;20054;-82
2023/10/21 02:37:41;;;;;;;33.13;15.93;;;10.90;99.90;;;;;;4983758;28;20045;-84
2023/10/21 02:40:07;;;;;;;34.33;16.08;;;11.00;99.90;;;;;;4990924;28;20096;-83
2023/10/21 02:42:34;;;;;;;28.15;16.48;;;10.90;99.90;;;;;;4990795;28;20374;-83
2023/10/21 02:45:00;;;;;;;32.22;17.08;;;10.90;99.90;;;;;;4970244;28;20159;-82
2023/10/21 02:47:26;;;;;;;31.83;16.90;;;10.90;99.90;;;;;;4983760;28;20053;-82
2023/10/21 02:49:52;;;;;;;35.58;16.35;;;10.90;99.90;;;;;;4988903;28;20057;-83
2023/10/21 02:52:18;;;;;;;30.08;16.10;;;10.80;99.90;;;;;;4979545;28;20050;-83
2023/10/21 02:54:44;;;;;;;34.90;16.92;;;10.80;99.90;;;;;;4989110;28;20510;-82
2023/10/21 02:57:10;;;;;;;37.58;17.90;;;10.80;99.90;;;;;;4987406;28;20100;-83
2023/10/21 02:59:35;;;;;;;33.25;17.55;;;10.80;99.90;;;;;;4988491;28;20469;-83
2023/10/21 03:02:01;;;;;;;37.13;18.20;;;10.80;99.90;;;;;;4989425;28;20116;-83
2023/10/21 03:04:27;;;;;;;36.08;17.65;;;10.70;99.90;;;;;;4973674;28;20049;-85
2023/10/21 03:06:52;;;;;;;36.75;18.85;;;10.80;99.90;;;;;;4979501;28;20074;-83
2023/10/21 03:09:18;;;;;;;32.50;18.20;;;10.70;99.90;;;;;;4999764;28;20119;-83
2023/10/21 03:11:44;;;;;;;34.92;18.15;;;10.70;99.90;;;;;;4972405;28;20076;-82
2023/10/21 03:14:10;;;;;;;36.58;17.75;;;10.60;99.90;;;;;;4995353;28;20582;-83
2023/10/21 03:16:37;;;;;;;38.72;18.33;;;10.70;99.90;;;;;;5000047;28;20121;-84
2023/10/21 03:19:04;;;;;;;34.92;17.13;;;10.70;99.90;;;;;;4986700;28;20052;-83
2023/10/21 03:21:30;;;;;;;32.85;17.58;;;10.70;99.90;;;;;;4972988;28;20095;-83
2023/10/21 03:23:56;;;;;;;31.85;16.85;;;10.70;99.90;;;;;;4984921;28;20038;-83
2023/10/21 03:26:22;;;;;;;34.25;16.98;;;10.60;99.90;;;;;;4983182;28;20088;-82
2023/10/21 03:28:50;;;;;;;38.15;17.27;;;10.60;99.90;;;;;;4989176;28;20034;-83
2023/10/21 03:31:17;;;;;;;30.70;16.15;;;10.60;99.90;;;;;;4974357;28;20058;-83
2023/10/21 03:33:44;;;;;;;36.08;17.83;;;10.70;99.90;;;;;;4973814;28;20502;-84
2023/10/21 03:36:10;;;;;;;31.05;16.67;;;10.60;99.90;;;;;;4972047;28;20054;-83
2023/10/21 03:38:35;;;;;;;33.38;17.70;;;10.60;99.90;;;;;;4970104;28;20050;-84
2023/10/21 03:41:12;;;;;;;36.08;17.80;;;10.90;99.90;;;;;;4984183;28;20042;-83
2023/10/21 03:43:38;;;;;;;30.70;15.73;;;10.60;99.90;;;;;;4982179;28;20056;-83
2023/10/21 03:46:06;;;;;;;35.35;17.58;;;10.60;99.90;;;;;;4975037;28;20057;-83
2023/10/21 03:48:32;;;;;;;29.90;16.73;;;10.60;99.90;;;;;;4967989;28;20054;-84
2023/10/21 03:51:12;;;;;;;33.33;17.50;;;10.60;99.90;;;;;;4974788;28;20041;-83
2023/10/21 03:53:38;;;;;;;35.83;17.33;;;10.70;99.90;;;;;;4992824;28;20042;-83
2023/10/21 03:56:04;;;;;;;34.95;17.17;;;10.60;99.90;;;;;;4991440;28;20046;-83
2023/10/21 03:58:31;;;;;;;42.08;18.08;;;10.50;99.90;;;;;;4992581;28;20137;-82
2023/10/21 04:00:57;;;;;;;36.50;17.15;;;10.50;99.90;;;;;;4976147;28;20107;-83
2023/10/21 04:03:28;;;;;;;29.35;17.42;;;10.50;99.90;;;;;;4978214;28;20042;-83
2023/10/21 04:05:56;;;;;;;33.22;17.67;;;10.50;99.90;;;;;;4974922;28;20054;-83
2023/10/21 04:08:26;;;;;;;35.88;16.83;;;10.50;99.90;;;;;;4993440;28;20442;-83
2023/10/21 04:10:52;;;;;;;36.97;17.85;;;10.40;99.90;;;;;;4974636;28;20121;-83
2023/10/21 04:13:19;;;;;;;40.78;18.73;;;10.40;99.90;;;;;;4972917;28;20490;-83
2023/10/21 04:15:44;;;;;;;39.08;17.92;;;10.40;99.90;;;;;;4974288;28;20042;-82
2023/10/21 04:18:10;;;;;;;40.20;18.23;;;10.40;99.90;;;;;;4993159;28;20424;-83
2023/10/21 04:20:40;;;;;;;33.90;17.88;;;10.40;99.90;;;;;;4977197;28;20133;-82
2023/10/21 04:23:06;;;;;;;36.38;18.80;;;10.30;99.90;;;;;;4984284;28;20134;-83
2023/10/21 04:25:32;;;;;;;37.78;19.00;;;10.40;99.90;;;;;;4992293;28;20128;-84
2023/10/21 04:27:58;;;;;;;38.50;19.30;;;10.30;99.90;;;;;;4993179;28;20483;-83
2023/10/21 04:30:24;;;;;;;41.05;19.17;;;10.20;99.90;;;;;;4993111;28;20089;-83
2023/10/21 04:32:51;;;;;;;36.45;19.08;;;10.30;99.90;;;;;;4992548;28;20050;-83
2023/10/21 04:35:17;;;;;;;33.85;18.52;;;10.30;99.90;;;;;;4992304;28;20046;-83
2023/10/21 04:37:43;;;;;;;41.80;19.08;;;10.30;99.90;;;;;;4982060;28;20125;-84
2023/10/21 04:40:09;;;;;;;35.22;18.23;;;10.20;99.90;;;;;;4991120;28;20160;-83
2023/10/21 04:42:35;;;;;;;39.38;19.35;;;10.20;99.90;;;;;;4976433;28;20053;-83
2023/10/21 04:45:02;;;;;;;40.75;18.58;;;10.20;99.90;;;;;;4992340;28;20574;-83
2023/10/21 04:47:27;;;;;;;37.95;18.55;;;10.20;99.90;;;;;;4988243;28;20056;-83
2023/10/21 04:49:53;;;;;;;38.83;18.08;;;10.20;99.90;;;;;;4992844;28;20431;-83
2023/10/21 04:52:19;;;;;;;37.47;18.30;;;10.20;99.90;;;;;;4991989;28;20522;-83
2023/10/21 04:54:45;;;;;;;37.58;19.48;;;10.10;99.90;;;;;;4992857;28;20070;-83
2023/10/21 04:57:11;;;;;;;36.17;19.50;;;10.20;99.90;;;;;;4978715;28;20064;-82
2023/10/21 04:59:38;;;;;;;38.92;19.20;;;10.20;99.90;;;;;;4971354;28;20110;-83
2023/10/21 05:02:04;;;;;;;36.33;19.08;;;10.10;99.90;;;;;;4979031;28;20625;-83
2023/10/21 05:04:30;;;;;;;38.35;18.38;;;10.20;99.90;;;;;;4978127;28;20050;-84
2023/10/21 05:06:56;;;;;;;38.88;18.08;;;10.10;99.90;;;;;;4980052;28;20469;-83
2023/10/21 05:09:22;;;;;;;35.15;19.00;;;10.10;99.90;;;;;;4993028;28;20082;-83
2023/10/21 05:11:47;;;;;;;39.70;18.67;;;10.10;99.90;;;;;;4993214;28;20125;-83
2023/10/21 05:14:14;;;;;;;35.65;18.45;;;10.10;99.90;;;;;;4977176;28;20061;-83
2023/10/21 05:16:39;;;;;;;37.75;18.77;;;10.10;99.90;;;;;;4976326;28;20100;-81
2023/10/21 05:19:05;;;;;;;32.95;17.23;;;10.10;99.90;;;;;;4974336;28;20046;-83
2023/10/21 05:21:31;;;;;;;33.65;17.08;;;10.10;99.90;;;;;;4989412;28;20046;-83
2023/10/21 05:23:58;;;;;;;34.38;17.52;;;10.10;99.90;;;;;;4968548;28;20053;-83
2023/10/21 05:26:28;;;;;;;31.10;17.23;;;10.10;99.90;;;;;;4990808;28;20099;-84
2023/10/21 05:28:53;;;;;;;36.92;17.70;;;10.10;99.90;;;;;;4966884;28;20056;-82
2023/10/21 05:31:19;;;;;;;31.00;17.77;;;10.10;99.90;;;;;;4974199;28;20041;-83
2023/10/21 05:33:45;;;;;;;33.65;18.00;;;10.10;99.90;;;;;;4988954;28;20049;-81
2023/10/21 05:36:11;;;;;;;39.75;17.90;;;10.10;99.90;;;;;;4973977;28;20279;-81
2023/10/21 05:38:37;;;;;;;35.45;17.92;;;10.10;99.90;;;;;;4988124;28;20454;-83
2023/10/21 05:41:03;;;;;;;34.88;17.00;;;10.10;99.90;;;;;;4999867;28;20038;-83
2023/10/21 05:43:29;;;;;;;32.63;16.63;;;10.10;99.90;;;;;;4983639;28;20451;-82
2023/10/21 05:45:54;;;;;;;37.45;18.17;;;10.30;99.90;;;;;;4985353;28;20124;-83
2023/10/21 05:48:21;;;;;;;34.78;17.15;;;10.20;99.90;;;;;;4976479;28;20053;-84
2023/10/21 05:50:47;;;;;;;29.90;15.93;;;10.20;99.90;;;;;;5001652;28;20129;-83
2023/10/21 05:53:13;;;;;;;32.05;17.05;;;10.20;99.90;;;;;;4974762;28;20052;-83
2023/10/21 05:55:43;;;;;;;31.85;16.13;;;10.20;99.90;;;;;;4988443;28;20058;-82
2023/10/21 05:58:09;;;;;;;30.88;16.33;;;10.20;99.90;;;;;;4972741;28;20120;-81
2023/10/21 06:00:38;;;;;;;29.27;16.35;;;10.30;99.90;;;;;;4966107;28;20056;-82
2023/10/21 06:03:06;;;;;;;30.88;17.17;;;10.30;99.90;;;;;;4997955;28;20545;-81
2023/10/21 06:05:32;;;;;;;34.65;16.50;;;10.30;99.90;;;;;;4976870;28;20454;-82
2023/10/21 06:07:58;;;;;;;30.42;15.60;;;10.40;99.90;;;;;;4972673;28;20120;-81
2023/10/21 06:10:24;;;;;;;29.38;15.57;;;10.30;99.90;;;;;;4989449;28;20077;-82
2023/10/21 06:12:50;;;;;;;31.58;15.75;;;10.30;99.90;;;;;;4989681;28;20046;-81
2023/10/21 06:15:15;;;;;;;29.38;15.25;;;10.40;99.90;;;;;;4974900;28;20077;-82
2023/10/21 06:17:41;;;;;;;32.90;15.70;;;10.40;99.90;;;;;;4979917;28;20041;-81
2023/10/21 06:20:08;;;;;;;35.97;15.52;;;10.40;99.90;;;;;;4996190;28;20045;-81
2023/10/21 06:22:33;;;;;;;31.13;15.85;;;10.40;99.90;;;;;;4985889;28;20477;-82
2023/10/21 06:25:00;;;;;;;27.13;14.95;;;10.50;99.90;;;;;;4979949;28;20112;-82
2023/10/21 06:27:26;;;;;;;33.65;15.75;;;10.50;99.90;;;;;;4982721;28;20045;-84
2023/10/21 06:29:52;;;;;;;30.30;15.48;;;10.50;99.90;;;;;;4994455;28;20048;-81
2023/10/21 06:32:17;;;;;;;26.00;15.73;;;10.50;99.90;;;;;;4978729;28;20498;-81
2023/10/21 06:34:43;;;;;;;28.05;15.10;;;10.50;99.90;;;;;;4976897;28;20146;-82
2023/10/21 06:37:09;;;;;;;31.40;15.63;;;10.60;99.90;;;;;;4996451;28;20050;-82
2023/10/21 06:39:35;;;;;;;30.40;15.20;;;10.60;99.90;;;;;;4991230;28;20057;-83
2023/10/21 06:42:00;;;;;;;29.73;14.85;;;10.60;99.90;;;;;;4982761;28;20049;-81
2023/10/21 06:44:26;;;;;;;24.00;13.95;;;10.60;99.90;;;;;;4979931;28;20084;-82
2023/10/21 06:46:53;;;;;;;27.08;14.82;;;10.60;99.90;;;;;;4976143;28;20052;-82
2023/10/21 06:49:19;;;;;;;23.80;13.85;;;10.60;99.90;;;;;;4977053;28;20874;-80
2023/10/21 06:51:49;;;;;;;29.05;14.23;;;10.70;99.90;;;;;;4961091;28;20049;-81
2023/10/21 06:54:17;;;;;;;27.98;15.52;;;10.60;99.90;;;;;;4965075;28;20070;-81
2023/10/21 06:56:44;;;;;;;23.45;14.75;;;10.70;99.90;;;;;;4980507;28;20054;-81
2023/10/21 06:59:10;;;;;;;26.55;15.23;;;10.80;99.90;;;;;;4978245;28;20506;-82
2023/10/21 07:01:36;;;;;;;26.60;14.10;;;11.20;99.90;;;;;;4981323;28;20069;-80
2023/10/21 07:04:01;;;;;;;26.88;14.45;;;11.30;99.90;;;;;;4982923;28;20463;-82
2023/10/21 07:06:27;;;;;;;26.85;14.65;;;10.80;99.90;;;;;;4979394;28;20052;-82
2023/10/21 07:08:53;;;;;;;28.48;14.73;;;10.80;99.90;;;;;;4978740;28;20142;-82
2023/10/21 07:11:18;;;;;;;23.83;14.00;;;10.80;99.90;;;;;;4970779;28;20081;-82
2023/10/21 07:13:44;;;;;;;24.27;14.30;;;10.90;99.90;;;;;;4966108;28;20219;-81
2023/10/21 07:16:10;;;;;;;26.02;14.52;;;10.90;99.90;;;;;;4980761;28;20081;-81
2023/10/21 07:18:39;;;;;;;25.92;14.23;;;10.90;99.90;;;;;;4969022;28;20053;-81
2023/10/21 07:21:07;;;;;;;23.70;13.95;;;11.00;99.90;;;;;;4979966;28;20096;-80
2023/10/21 07:23:33;;;;;;;27.80;13.75;;;11.00;99.90;;;;;;4990328;28;20061;-80
2023/10/21 07:25:58;;;;;;;24.00;13.63;;;11.00;99.90;;;;;;4990734;28;20476;-80
2023/10/21 07:28:24;;;;;;;28.05;13.88;;;10.90;99.90;;;;;;4970662;28;20059;-81
2023/10/21 07:30:54;;;;;;;32.60;13.73;;;11.10;99.90;;;;;;4985249;28;20052;-81
2023/10/21 07:33:23;;;;;;;20.70;12.95;;;11.10;99.90;;;;;;4974426;28;20057;-82
2023/10/21 07:35:53;;;;;;;25.65;13.50;;;11.10;99.90;;;;;;4984245;28;21629;-81
2023/10/21 07:38:21;;;;;;;24.33;14.63;;;11.10;99.90;;;;;;4963492;28;20050;-80
2023/10/21 07:40:48;;;;;;;26.17;14.40;;;11.10;99.90;;;;;;4965319;28;20045;-81
2023/10/21 07:43:16;;;;;;;23.65;14.00;;;11.20;99.90;;;;;;4956413;28;20042;-81
2023/10/21 07:45:42;;;;;;;25.17;13.30;;;11.20;99.90;;;;;;4981457;28;20055;-81
2023/10/21 07:48:10;;;;;;;25.75;12.80;;;11.20;99.90;;;;;;4966620;28;20047;-81
2023/10/21 07:50:36;;;;;;;24.20;13.02;;;11.20;99.90;;;;;;4966232;28;20453;-82
2023/10/21 07:53:01;;;;;;;22.50;13.63;;;11.30;99.90;;;;;;4969103;28;20038;-81
2023/10/21 07:55:28;;;;;;;22.20;13.13;;;11.30;99.90;;;;;;4981482;28;20049;-81
2023/10/21 07:57:55;;;;;;;20.15;13.07;;;11.30;99.90;;;;;;4964885;28;20042;-81
2023/10/21 08:00:24;;;;;;;23.80;13.80;;;11.40;99.90;;;;;;4987440;28;20128;-81
2023/10/21 08:02:49;;;;;;;23.50;12.98;;;11.40;99.90;;;;;;4967781;28;20104;-80
2023/10/21 08:05:15;;;;;;;24.85;13.88;;;11.50;99.90;;;;;;4981726;28;20513;-81
2023/10/21 08:07:41;;;;;;;26.15;12.48;;;11.50;99.90;;;;;;4966483;28;20046;-84
2023/10/21 08:10:07;;;;;;;22.30;13.18;;;11.50;99.90;;;;;;4977269;28;20120;-80
2023/10/21 08:12:34;;;;;;;23.88;13.90;;;11.60;99.90;;;;;;4978263;28;20398;-81
2023/10/21 08:15:04;;;;;;;25.85;13.45;;;11.90;99.90;;;;;;4970285;28;20129;-81
2023/10/21 08:17:30;;;;;;;24.70;14.25;;;11.60;99.90;;;;;;4984195;28;20129;-80
2023/10/21 08:19:56;;;;;;;27.17;13.15;;;11.70;99.90;;;;;;4986735;28;20081;-81
2023/10/21 08:22:22;;;;;;;22.40;13.32;;;11.80;99.90;;;;;;4987874;28;20169;-82
2023/10/21 08:24:48;;;;;;;25.90;14.50;;;11.80;99.90;;;;;;4983787;28;20447;-81
2023/10/21 08:27:14;;;;;;;21.10;13.30;;;11.80;99.90;;;;;;4988436;28;20038;-81
2023/10/21 08:29:41;;;;;;;24.85;13.35;;;11.80;99.90;;;;;;4969858;28;20061;-80
2023/10/21 08:32:08;;;;;;;22.45;13.95;;;11.90;99.90;;;;;;4970809;28;20045;-81
2023/10/21 08:34:36;;;;;;;25.63;13.50;;;11.90;99.90;;;;;;4972152;28;20348;-81
2023/10/21 08:37:07;;;;;;;26.48;14.02;;;12.00;99.90;;;;;;4973571;28;20224;-81
2023/10/21 08:39:34;;;;;;;19.23;13.05;;;11.90;99.90;;;;;;4987701;28;20180;-81
2023/10/21 08:42:00;;;;;;;25.83;13.60;;;11.90;99.90;;;;;;4984978;28;20073;-80
2023/10/21 08:44:26;;;;;;;24.15;13.05;;;12.00;99.90;;;;;;4970365;28;20053;-81
2023/10/21 08:46:56;;;;;;;25.55;13.88;;;12.00;99.90;;;;;;4968277;28;20046;-81
2023/10/21 08:49:23;;;;;;;21.83;13.37;;;12.10;99.90;;;;;;4966941;28;20425;-81
2023/10/21 08:51:51;;;;;;;22.77;13.32;;;12.20;99.90;;;;;;4980982;28;20049;-79
2023/10/21 08:54:22;;;;;;;25.15;13.15;;;12.20;99.90;;;;;;4984148;28;20120;-81
2023/10/21 08:56:47;;;;;;;21.50;13.30;;;12.30;99.90;;;;;;4984013;28;20434;-79
2023/10/21 08:59:14;;;;;;;20.08;12.27;;;12.40;99.90;;;;;;4969568;28;20060;-79
2023/10/21 09:01:40;;;;;;;26.92;12.15;;;12.40;99.90;;;;;;4986227;28;20085;-80
2023/10/21 09:04:07;;;;;;;23.27;12.93;;;12.50;99.90;;;;;;4968317;28;20120;-79
2023/10/21 09:06:32;;;;;;;22.35;12.63;;;12.60;99.90;;;;;;4967157;28;20052;-79
2023/10/21 09:08:58;;;;;;;20.90;11.80;;;12.70;99.90;;;;;;4967059;28;20038;-80
2023/10/21 09:11:26;;;;;;;18.95;11.15;;;12.70;99.90;;;;;;4982104;28;20542;-79
2023/10/21 09:13:58;;;;;;;15.45;10.60;;;12.80;99.90;;;;;;4978967;28;20042;-79
2023/10/21 09:16:34;;;;;;;17.48;10.23;;;12.60;99.90;;;;;;4983282;28;20046;-78
2023/10/21 09:19:01;;;;;;;22.35;10.73;;;12.90;99.90;;;;;;4967030;28;20045;-78
2023/10/21 09:21:38;;;;;;;18.23;9.48;;;12.90;99.90;;;;;;4968757;28;20073;-78
2023/10/21 09:24:12;;;;;;;17.52;9.38;;;12.90;99.90;;;;;;4967890;28;20132;-79
2023/10/21 09:26:46;;;;;;;17.88;8.80;;;13.00;99.90;;;;;;4985260;28;20527;-78
2023/10/21 09:29:13;;;;;;;21.33;9.40;;;13.10;99.90;;;;;;4988129;28;20128;-78
2023/10/21 09:31:41;;;;;;;16.98;8.30;;;13.10;99.90;;;;;;4985230;28;20057;-78
2023/10/21 09:34:07;;;;;;;19.90;8.35;;;13.20;99.90;;;;;;4969610;28;20149;-78
2023/10/21 09:36:42;;;;;;;20.38;8.30;;;13.20;99.90;;;;;;4982579;28;20581;-78
2023/10/21 09:39:08;;;;;;;16.60;7.20;;;13.30;99.90;;;;;;4994972;28;20780;-79
2023/10/21 09:41:35;;;;;;;14.75;7.22;;;13.30;99.90;;;;;;4985434;28;20046;-79
2023/10/21 09:44:03;;;;;;;18.52;6.78;;;13.30;99.90;;;;;;4981696;28;20052;-80
2023/10/21 09:46:30;;;;;;;20.55;7.55;;;13.40;99.90;;;;;;4982838;28;20084;-78
2023/10/21 09:49:00;;;;;;;14.82;6.78;;;13.40;99.90;;;;;;4982023;28;20084;-79
2023/10/21 09:51:30;;;;;;;15.95;6.75;;;13.30;99.90;;;;;;4965855;28;20410;-78
2023/10/21 09:54:00;;;;;;;13.70;6.33;;;13.50;99.90;;;;;;4980705;28;20897;-79
2023/10/21 09:56:26;;;;;;;16.13;6.53;;;13.40;99.90;;;;;;4979630;28;20142;-77
2023/10/21 09:58:54;;;;;;;17.23;6.70;;;13.40;99.90;;;;;;4984023;28;20123;-78
2023/10/21 10:01:23;;;;;;;15.15;6.00;;;13.50;99.90;;;;;;4968329;28;20046;-79
2023/10/21 10:03:52;;;;;;;11.93;5.45;;;13.50;99.90;;;;;;4966637;28;20053;-78
2023/10/21 10:06:19;;;;;;;13.90;5.85;;;13.50;99.90;;;;;;4983019;28;20119;-78
2023/10/21 10:08:47;;;;;;;19.42;6.05;;;13.50;99.90;;;;;;4961909;28;20053;-77
2023/10/21 10:11:15;;;;;;;14.77;5.85;;;13.60;99.90;;;;;;4966209;28;20103;-78
2023/10/21 10:13:46;;;;;;;10.90;4.95;;;13.60;99.90;;;;;;4983498;28;20038;-78
2023/10/21 10:16:23;;;;;;;13.55;4.57;;;13.60;99.90;;;;;;4980347;28;20100;-78
2023/10/21 10:18:50;;;;;;;8.60;4.78;;;13.60;99.90;;;;;;4963479;28;20415;-79
2023/10/21 10:21:18;;;;;;;8.50;4.00;;;13.60;99.90;;;;;;4966752;28;20129;-79
2023/10/21 10:23:58;;;;;;;9.10;4.07;;;13.70;99.90;;;;;;4959303;28;20092;-77
2023/10/21 10:26:33;;;;;;;11.60;3.83;;;13.70;99.90;;;;;;4964161;28;20120;-78
2023/10/21 10:29:15;;;;;;;9.35;3.92;;;13.70;99.90;;;;;;4966892;28;20160;-78
2023/10/21 10:31:44;;;;;;;11.45;3.92;;;13.60;99.90;;;;;;4966459;28;20475;-79
2023/10/21 10:34:10;;;;;;;9.52;3.97;;;13.60;99.90;;;;;;4982417;28;20048;-78
2023/10/21 10:36:36;;;;;;;8.55;3.90;;;13.60;99.90;;;;;;4967030;28;20050;-78
2023/10/21 10:39:04;;;;;;;8.75;3.28;;;13.70;99.90;;;;;;4983081;28;20042;-77
2023/10/21 10:41:31;;;;;;;7.55;3.80;;;13.60;99.90;;;;;;4966362;28;20050;-78
2023/10/21 10:44:06;;;;;;;10.52;3.90;;;13.60;99.90;;;;;;4982909;28;20077;-79
2023/10/21 10:46:36;;;;;;;8.38;3.55;;;13.70;99.90;;;;;;4971775;28;20449;-78
2023/10/21 10:49:05;;;;;;;6.82;3.17;;;13.70;99.90;;;;;;4969600;28;20042;-78
2023/10/21 10:51:45;;;;;;;7.80;3.30;;;13.70;99.90;;;;;;4984221;28;20054;-78
2023/10/21 10:54:17;;;;;;;6.72;2.83;;;13.70;99.90;;;;;;4982898;28;20550;-77
2023/10/21 10:56:44;;;;;;;8.85;2.90;;;13.70;99.90;;;;;;4981402;28;20046;-77
2023/10/21 10:59:17;;;;;;;7.25;2.72;;;13.70;99.90;;;;;;4965642;28;20100;-79
2023/10/21 11:01:44;;;;;;;9.13;2.40;;;13.70;99.90;;;;;;4979003;28;20057;-79
2023/10/21 11:04:10;;;;;;;5.93;2.50;;;13.70;99.90;;;;;;4979325;28;20123;-76
2023/10/21 11:06:42;;;;;;;5.55;2.00;;;13.70;99.90;;;;;;4963536;28;20041;-80
2023/10/21 11:09:16;;;;;;;5.80;2.00;;;13.70;99.90;;;;;;4984175;28;20414;-78
2023/10/21 11:11:47;;;;;;;5.90;1.85;;;13.70;99.90;;;;;;4980974;28;20680;-78
2023/10/21 11:14:17;;;;;;;5.32;2.10;;;13.60;99.90;;;;;;4983343;28;20038;-77
2023/10/21 11:16:44;;;;;;;5.45;2.10;;;13.60;99.90;;;;;;4961964;28;20077;-77
2023/10/21 11:19:10;;;;;;;6.18;2.17;;;13.60;99.90;;;;;;4966021;28;20046;-78
2023/10/21 11:21:41;;;;;;;5.78;2.03;;;13.60;99.90;;;;;;4967992;28;20057;-78
2023/10/21 11:24:10;;;;;;;5.72;2.15;;;13.60;99.90;;;;;;4982680;28;20048;-78
2023/10/21 11:26:36;;;;;;;4.57;1.88;;;13.70;99.90;;;;;;4980996;28;20129;-79
2023/10/21 11:29:06;;;;;;;5.03;1.60;;;13.70;99.90;;;;;;4984857;28;20077;-78
2023/10/21 11:31:34;;;;;;;6.50;1.60;;;13.70;99.90;;;;;;4965631;28;20509;-78
2023/10/21 11:34:28;;;;;;;3.45;1.40;;;13.70;99.90;;;;;;4983831;28;20050;-77
2023/10/21 11:36:56;;;;;;;5.03;1.35;;;13.70;99.90;;;;;;4983422;28;20050;-78
2023/10/21 11:39:22;;;;;;;3.88;1.38;;;13.80;99.90;;;;;;4969332;28;20097;-77
2023/10/21 11:41:49;;;;;;;3.58;1.33;;;13.70;99.90;;;;;;4966676;28;20046;-77
2023/10/21 11:44:17;;;;;;;3.78;1.23;;;13.70;99.90;;;;;;4983197;28;20250;-77
2023/10/21 11:46:43;;;;;;;3.72;1.30;;;13.70;99.90;;;;;;4967173;28;20045;-78
2023/10/21 11:49:15;;;;;;;4.97;1.10;;;13.60;99.90;;;;;;4987754;28;20406;-78
2023/10/21 11:51:43;;;;;;;3.53;1.55;;;13.70;99.90;;;;;;4986239;28;20045;-76
2023/10/21 11:54:17;;;;;;;3.17;1.10;;;13.60;99.90;;;;;;4972165;28;20457;-77
2023/10/21 12:15:19;;;;;;;4.72;1.20;;;13.40;99.90;;;;;;4983394;28;20061;-76
2023/10/21 12:20:50;;;;;;;3.75;0.93;;;13.60;99.90;;;;;;5001076;28;20046;-75
2023/10/21 12:26:19;;;;;;;3.40;0.90;;;13.60;99.90;;;;;;4986219;28;20504;-76
2023/10/21 12:36:41;;;;;;;4.18;1.08;;;13.80;99.90;;;;;;4986117;28;20104;-75
2023/10/21 12:41:53;;;;;;;1.92;0.80;;;13.80;99.90;;;;;;4986051;28;20065;-76
2023/10/21 12:44:23;;;;;;;5.05;1.30;;;13.80;99.90;;;;;;4968339;28;20081;-76
2023/10/21 12:46:57;;;;;;;3.67;0.80;;;13.80;99.90;;;;;;4986417;28;20039;-76
2023/10/21 12:49:27;;;;;;;1.48;0.80;;;13.80;99.90;;;;;;4982162;28;20050;-76
2023/10/21 12:51:55;;;;;;;5.18;1.02;;;13.80;99.90;;;;;;4970921;28;20513;-76
2023/10/21 12:54:24;;;;;;;3.55;0.90;;;13.70;99.90;;;;;;4968997;28;20042;-75
2023/10/21 12:56:53;;;;;;;6.03;1.08;;;13.70;99.90;;;;;;4980361;28;20053;-75
2023/10/21 12:59:20;;;;;;;4.15;0.82;;;13.70;99.90;;;;;;4967998;28;20046;-75
2023/10/21 13:01:46;;;;;;;3.92;0.80;;;13.80;99.90;;;;;;4968787;28;20467;-75
2023/10/21 13:04:12;;;;;;;2.80;0.73;;;13.80;99.90;;;;;;4977895;28;20041;-75
2023/10/21 13:06:38;;;;;;;5.13;1.08;;;13.80;99.90;;;;;;4962514;28;20621;-75